createdAt,value
2022-08-23T00:13:06.066Z,18.50
2022-08-23T00:38:33.109Z,18.60
2022-08-23T00:45:20.953Z,18.60
2022-08-23T00:50:26.437Z,18.70
2022-08-23T00:55:33.820Z,18.70
2022-08-23T01:15:16.817Z,18.90
2022-08-23T01:20:26.930Z,18.80
2022-08-23T01:25:45.735Z,18.90
2022-08-23T01:37:48.747Z,18.90
2022-08-23T01:42:52.127Z,18.90
2022-08-23T01:47:55.929Z,18.80
2022-08-23T01:53:01.937Z,18.80
2022-08-23T01:58:07.357Z,18.80
2022-08-23T02:03:16.528Z,18.80
2022-08-23T02:08:38.317Z,18.80
2022-08-23T02:13:45.621Z,18.70
2022-08-23T02:18:49.152Z,18.70
2022-08-23T02:23:52.577Z,18.70
2022-08-23T02:28:56.518Z,18.60
2022-08-23T02:39:40.076Z,18.60
2022-08-23T02:44:57.073Z,18.60
2022-08-23T02:55:32.663Z,18.60
2022-08-23T03:08:31.997Z,18.60
2022-08-23T03:33:34.435Z,18.70
2022-08-23T03:38:43.445Z,18.70
2022-08-23T03:43:46.919Z,18.70
2022-08-23T03:48:59.188Z,18.70
2022-08-23T03:54:02.947Z,18.70
2022-08-23T03:59:09.928Z,18.80
2022-08-23T04:10:32.186Z,18.80
2022-08-23T04:15:36.062Z,18.80
2022-08-23T04:20:39.836Z,18.90
2022-08-23T04:25:46.179Z,18.90
2022-08-23T04:30:53.020Z,18.90
2022-08-23T04:35:56.376Z,19.00
2022-08-23T04:41:18.977Z,19.00
2022-08-23T04:46:22.377Z,19.00
2022-08-23T04:51:25.556Z,19.10
2022-08-23T04:56:29.217Z,19.20
2022-08-23T05:01:32.865Z,19.30
2022-08-23T05:06:36.617Z,19.40
2022-08-23T05:11:40.237Z,19.50
2022-08-23T05:16:43.606Z,19.70
2022-08-23T05:21:47.096Z,19.90
2022-08-23T05:26:50.497Z,20.10
2022-08-23T05:31:53.646Z,20.30
2022-08-23T05:36:57.164Z,20.50
2022-08-23T05:42:00.607Z,20.70
2022-08-23T05:47:10.816Z,20.80
2022-08-23T05:52:15.644Z,20.90
2022-08-23T05:57:19.102Z,21.00
2022-08-23T06:02:22.270Z,21.00
2022-08-23T06:07:25.426Z,21.10
2022-08-23T06:12:28.863Z,21.20
2022-08-23T06:17:32.354Z,21.30
2022-08-23T06:22:35.578Z,21.40
2022-08-23T06:27:38.837Z,21.40
2022-08-23T06:32:42.293Z,21.20
2022-08-23T06:37:47.473Z,21.20
2022-08-23T06:42:50.687Z,21.30
2022-08-23T06:47:54.050Z,21.70
2022-08-23T06:52:57.369Z,21.80
2022-08-23T06:58:00.448Z,21.70
2022-08-23T07:03:03.860Z,21.50
2022-08-23T07:08:07.386Z,21.50
2022-08-23T07:13:10.654Z,21.40
2022-08-23T07:18:13.858Z,21.30
2022-08-23T07:23:18.226Z,21.20
2022-08-23T07:28:21.975Z,21.10
2022-08-23T07:33:25.224Z,21.00
2022-08-23T07:38:30.797Z,21.10
2022-08-23T07:43:34.699Z,21.30
2022-08-23T07:48:53.355Z,21.30
2022-08-23T07:53:58.526Z,21.20
2022-08-23T07:59:02.209Z,21.20
2022-08-23T08:04:07.057Z,21.10
2022-08-23T08:09:11.602Z,21.00
2022-08-23T08:14:15.821Z,21.00
2022-08-23T08:19:20.017Z,21.00
2022-08-23T08:24:23.321Z,21.00
2022-08-23T08:29:26.747Z,21.10
2022-08-23T08:34:30.045Z,21.10
2022-08-23T08:39:34.686Z,21.20
2022-08-23T08:44:50.222Z,21.30
2022-08-23T08:49:56.406Z,21.40
2022-08-23T08:55:23.082Z,21.50
2022-08-23T09:00:31.259Z,21.50
2022-08-23T09:05:40.406Z,21.70
2022-08-23T09:11:01.835Z,21.90
2022-08-23T09:16:17.068Z,22.20
2022-08-23T09:21:21.076Z,22.50
2022-08-23T09:26:27.207Z,23.00
2022-08-23T09:31:45.511Z,23.50
2022-08-23T09:36:50.630Z,24.00
2022-08-23T09:41:56.016Z,24.20
2022-08-23T09:47:13.033Z,24.40
2022-08-23T09:52:34.116Z,24.30
2022-08-23T09:57:37.905Z,24.40
2022-08-23T10:02:41.245Z,24.40
2022-08-23T10:07:53.487Z,24.40
2022-08-23T10:12:59.894Z,24.80
2022-08-23T10:18:11.667Z,25.10
2022-08-23T10:23:23.437Z,25.10
2022-08-23T10:29:04.408Z,25.20
2022-08-23T10:34:21.637Z,25.30
2022-08-23T10:39:30.645Z,25.60
2022-08-23T10:45:00.984Z,25.60
2022-08-23T10:50:14.952Z,25.50
2022-08-23T10:56:06.273Z,25.80
2022-08-23T11:01:13.820Z,26.00
2022-08-23T11:06:36.044Z,26.10
2022-08-23T11:12:06.098Z,26.50
2022-08-23T11:17:25.317Z,26.50
2022-08-23T11:22:36.500Z,26.20
2022-08-23T11:27:42.226Z,26.60
2022-08-23T11:32:46.735Z,27.10
2022-08-23T11:37:57.741Z,27.10
2022-08-23T11:43:48.675Z,27.10
2022-08-23T11:49:01.116Z,27.00
2022-08-23T11:54:34.640Z,27.10
2022-08-23T11:59:55.547Z,27.40
2022-08-23T12:05:09.465Z,27.60
2022-08-23T12:10:22.425Z,27.80
2022-08-23T12:16:04.049Z,27.90
2022-08-23T12:21:09.714Z,27.90
2022-08-23T12:26:38.495Z,27.90
2022-08-23T12:32:12.827Z,27.90
2022-08-23T12:37:31.050Z,27.90
2022-08-23T12:42:39.542Z,28.10
2022-08-23T12:47:44.690Z,28.00
2022-08-23T12:52:58.747Z,27.80
2022-08-23T12:58:02.023Z,27.70
2022-08-23T13:03:19.696Z,27.50
2022-08-23T13:08:34.740Z,27.20
2022-08-23T13:13:43.452Z,27.00
2022-08-23T13:18:47.173Z,26.70
2022-08-23T13:24:01.853Z,26.40
2022-08-23T13:29:10.061Z,26.30
2022-08-23T13:34:39.905Z,26.20
2022-08-23T13:39:54.929Z,26.30
2022-08-23T13:44:58.035Z,26.30
2022-08-23T13:50:03.370Z,26.30
2022-08-23T13:55:06.825Z,26.20
2022-08-23T14:00:12.130Z,26.00
2022-08-23T14:05:22.012Z,26.00
2022-08-23T14:10:25.486Z,25.90
2022-08-23T14:20:53.163Z,26.00
2022-08-23T14:25:57.306Z,25.90
2022-08-23T14:31:00.613Z,25.70
2022-08-23T14:36:05.236Z,25.60
2022-08-23T14:41:11.065Z,25.50
2022-08-23T14:46:16.561Z,25.30
2022-08-23T14:51:33.856Z,25.00
2022-08-23T14:56:37.476Z,24.70
2022-08-23T15:01:49.508Z,24.50
2022-08-23T15:07:16.649Z,24.40
2022-08-23T15:17:52.863Z,24.00
2022-08-23T15:22:56.385Z,23.80
2022-08-23T15:28:02.469Z,23.60
2022-08-23T15:33:06.046Z,23.50
2022-08-23T15:38:16.375Z,23.30
2022-08-23T15:43:22.351Z,23.10
2022-08-23T15:48:33.106Z,22.90
2022-08-23T15:53:40.017Z,22.70
2022-08-23T15:58:43.179Z,22.70
2022-08-23T16:03:46.506Z,22.60
2022-08-23T16:08:53.077Z,22.50
2022-08-23T16:13:56.387Z,22.30
2022-08-23T16:19:01.015Z,22.20
2022-08-23T16:24:04.776Z,22.00
2022-08-23T16:29:10.983Z,22.00
2022-08-23T16:34:19.195Z,22.00
2022-08-23T16:39:23.144Z,22.00
2022-08-23T16:44:40.736Z,22.00
2022-08-23T16:49:46.596Z,21.90
2022-08-23T16:54:51.604Z,21.90
2022-08-23T16:59:56.124Z,21.80
2022-08-23T17:05:00.453Z,21.80
2022-08-23T17:10:04.476Z,21.90
2022-08-23T17:15:10.739Z,21.70
2022-08-23T17:20:15.994Z,21.70
2022-08-23T17:25:20.068Z,21.50
2022-08-23T17:45:51.942Z,21.30
2022-08-23T17:50:56.119Z,21.20
2022-08-23T17:55:59.618Z,21.10
2022-08-23T18:01:03.023Z,21.00
2022-08-23T18:06:16.664Z,20.90
2022-08-23T18:11:20.711Z,20.90
2022-08-23T18:16:27.903Z,20.80
2022-08-23T18:21:34.091Z,20.80
2022-08-23T18:26:57.269Z,20.70
2022-08-23T18:32:01.510Z,20.60
2022-08-23T18:37:07.031Z,20.50
2022-08-23T18:42:11.548Z,20.40
2022-08-23T18:47:15.606Z,20.40
2022-08-23T18:52:19.640Z,20.30
2022-08-23T18:57:23.460Z,20.20
2022-08-23T19:02:27.624Z,20.10
2022-08-23T19:07:31.340Z,20.00
2022-08-23T19:12:35.591Z,19.90
2022-08-23T19:17:39.761Z,19.90
2022-08-23T19:22:44.571Z,19.80
2022-08-23T19:27:48.530Z,19.80
2022-08-23T19:39:09.869Z,19.70
2022-08-23T19:44:18.550Z,19.70
2022-08-23T19:49:37.595Z,19.80
2022-08-23T19:54:43.370Z,19.80
2022-08-23T20:00:01.922Z,19.80
2022-08-23T20:05:09.488Z,19.80
2022-08-23T20:10:15.501Z,19.70
2022-08-23T20:15:20.291Z,19.70
2022-08-23T20:20:25.448Z,19.70
2022-08-23T20:25:31.010Z,19.80
2022-08-23T20:30:38.509Z,19.80
2022-08-23T20:35:42.033Z,19.70
2022-08-23T20:40:45.451Z,19.60
2022-08-23T20:45:51.076Z,19.40
2022-08-23T20:50:54.114Z,19.30
2022-08-23T20:55:58.261Z,19.20
2022-08-23T21:01:01.705Z,19.20
2022-08-23T21:06:10.220Z,19.20
2022-08-23T21:11:14.051Z,19.30
2022-08-23T21:16:18.600Z,19.30
2022-08-23T21:21:22.001Z,19.30
2022-08-23T21:26:25.743Z,19.30
2022-08-23T21:31:29.518Z,19.20
2022-08-23T21:36:33.020Z,19.20
2022-08-23T21:41:39.772Z,19.20
2022-08-23T21:46:43.724Z,19.20
2022-08-23T21:51:49.113Z,19.10
2022-08-23T21:56:52.819Z,19.10
2022-08-23T22:01:56.366Z,19.20
2022-08-23T22:07:01.982Z,19.10
2022-08-23T22:12:07.012Z,19.10
2022-08-23T22:17:11.031Z,19.10
2022-08-23T22:22:15.642Z,19.10
2022-08-23T22:27:19.929Z,19.10
2022-08-23T22:32:26.674Z,19.10
2022-08-23T22:38:03.555Z,19.10
2022-08-23T22:43:18.864Z,19.00
2022-08-23T22:48:33.902Z,18.90
2022-08-23T22:53:45.089Z,18.90
2022-08-23T22:58:55.322Z,18.90
2022-08-23T23:04:04.733Z,18.90
2022-08-23T23:09:12.583Z,18.80
2022-08-23T23:14:17.842Z,18.80
2022-08-23T23:19:39.943Z,18.80
2022-08-23T23:24:43.441Z,18.90
2022-08-23T23:29:47.401Z,18.90
2022-08-23T23:34:53.732Z,18.90
2022-08-23T23:40:03.364Z,19.00
2022-08-23T23:52:07.821Z,19.00
2022-08-23T23:57:20.131Z,18.90
